Terminal Aerodrome Forecast
Issued by NWS

Home | Current Version | Previous Version | Text Only | Print | Product List | Glossary On
Versions: 1 2 3 4 5 6 7 8 9 10 11 12 13 14
000
FTUS43 KJKL 281123
TAFSJS
TAF
KSJS 281123Z 2812/2912 VRB03KT P6SM FEW150
     FM281700 22007KT P6SM SCT100
     FM282100 29005KT P6SM VCSH BKN050
     FM290300 31004KT 6SM BR VCSH OVC015
     FM290600 VRB03KT 4SM BR VCSH OVC007=

USA.gov is the U.S. government's official web portal to all federal, state and local government web resources and services.